sensor_id;sensor_type;location;lat;lon;timestamp;P1;durP1;ratioP1;P2;durP2;ratioP2
37559;SDS011;23398;50.928;7.084;2022-08-11T00:00:18;2.33;;;1.98;;
37559;SDS011;23398;50.928;7.084;2022-08-11T00:02:46;3.47;;;2.40;;
37559;SDS011;23398;50.928;7.084;2022-08-11T00:05:16;2.50;;;2.30;;
37559;SDS011;23398;50.928;7.084;2022-08-11T00:07:47;2.25;;;2.05;;
37559;SDS011;23398;50.928;7.084;2022-08-11T00:10:16;2.25;;;2.05;;
37559;SDS011;23398;50.928;7.084;2022-08-11T00:12:49;2.70;;;2.50;;
37559;SDS011;23398;50.928;7.084;2022-08-11T00:15:20;3.60;;;2.47;;
37559;SDS011;23398;50.928;7.084;2022-08-11T00:17:47;2.95;;;2.13;;
37559;SDS011;23398;50.928;7.084;2022-08-11T00:20:14;3.00;;;2.40;;
37559;SDS011;23398;50.928;7.084;2022-08-11T00:22:42;3.22;;;2.28;;
37559;SDS011;23398;50.928;7.084;2022-08-11T00:25:13;2.40;;;2.20;;
37559;SDS011;23398;50.928;7.084;2022-08-11T00:27:44;2.40;;;2.20;;
37559;SDS011;23398;50.928;7.084;2022-08-11T00:30:11;4.18;;;2.40;;
37559;SDS011;23398;50.928;7.084;2022-08-11T00:32:38;2.75;;;2.35;;
37559;SDS011;23398;50.928;7.084;2022-08-11T00:35:13;2.40;;;2.20;;
37559;SDS011;23398;50.928;7.084;2022-08-11T00:37:46;2.40;;;2.20;;
37559;SDS011;23398;50.928;7.084;2022-08-11T00:40:17;2.40;;;2.20;;
37559;SDS011;23398;50.928;7.084;2022-08-11T00:43:05;2.50;;;2.20;;
37559;SDS011;23398;50.928;7.084;2022-08-11T00:54:02;3.17;;;2.20;;
37559;SDS011;23398;50.928;7.084;2022-08-11T01:00:10;3.28;;;2.10;;
37559;SDS011;23398;50.928;7.084;2022-08-11T01:02:43;3.30;;;2.70;;
37559;SDS011;23398;50.928;7.084;2022-08-11T01:05:14;2.38;;;2.17;;
37559;SDS011;23398;50.928;7.084;2022-08-11T01:13:28;2.55;;;2.25;;
37559;SDS011;23398;50.928;7.084;2022-08-11T01:21:48;2.72;;;2.38;;
37559;SDS011;23398;50.928;7.084;2022-08-11T01:30:17;2.97;;;2.60;;
37559;SDS011;23398;50.928;7.084;2022-08-11T01:48:25;3.40;;;2.28;;
37559;SDS011;23398;50.928;7.084;2022-08-11T02:14:57;2.67;;;2.20;;
37559;SDS011;23398;50.928;7.084;2022-08-11T02:20:23;2.85;;;2.53;;
37559;SDS011;23398;50.928;7.084;2022-08-11T02:26:19;2.75;;;2.55;;
37559;SDS011;23398;50.928;7.084;2022-08-11T02:29:32;2.47;;;2.28;;
37559;SDS011;23398;50.928;7.084;2022-08-11T02:31:46;3.33;;;2.70;;
37559;SDS011;23398;50.928;7.084;2022-08-11T02:46:18;2.42;;;2.22;;
37559;SDS011;23398;50.928;7.084;2022-08-11T02:48:57;3.58;;;2.55;;
37559;SDS011;23398;50.928;7.084;2022-08-11T02:52:21;3.03;;;2.47;;
37559;SDS011;23398;50.928;7.084;2022-08-11T02:57:28;4.15;;;2.58;;
37559;SDS011;23398;50.928;7.084;2022-08-11T03:00:09;2.75;;;2.50;;
37559;SDS011;23398;50.928;7.084;2022-08-11T03:06:23;2.63;;;2.42;;
37559;SDS011;23398;50.928;7.084;2022-08-11T03:08:35;2.85;;;2.47;;
37559;SDS011;23398;50.928;7.084;2022-08-11T03:23:30;4.53;;;2.53;;
37559;SDS011;23398;50.928;7.084;2022-08-11T03:26:24;4.35;;;2.38;;
37559;SDS011;23398;50.928;7.084;2022-08-11T03:28:59;3.53;;;2.58;;
37559;SDS011;23398;50.928;7.084;2022-08-11T03:34:08;2.60;;;2.40;;
37559;SDS011;23398;50.928;7.084;2022-08-11T03:42:05;3.13;;;2.35;;
37559;SDS011;23398;50.928;7.084;2022-08-11T03:45:06;3.88;;;2.58;;
37559;SDS011;23398;50.928;7.084;2022-08-11T04:10:32;2.63;;;2.42;;
37559;SDS011;23398;50.928;7.084;2022-08-11T04:30:27;2.67;;;2.47;;
37559;SDS011;23398;50.928;7.084;2022-08-11T04:57:36;2.83;;;2.53;;
37559;SDS011;23398;50.928;7.084;2022-08-11T05:03:50;2.85;;;2.55;;
37559;SDS011;23398;50.928;7.084;2022-08-11T05:09:50;2.70;;;2.42;;
37559;SDS011;23398;50.928;7.084;2022-08-11T05:12:45;3.03;;;2.55;;
37559;SDS011;23398;50.928;7.084;2022-08-11T05:15:29;4.07;;;2.80;;
37559;SDS011;23398;50.928;7.084;2022-08-11T05:18:25;3.42;;;2.50;;
37559;SDS011;23398;50.928;7.084;2022-08-11T05:21:12;3.08;;;2.53;;
37559;SDS011;23398;50.928;7.084;2022-08-11T05:24:07;3.10;;;2.65;;
37559;SDS011;23398;50.928;7.084;2022-08-11T05:27:02;2.95;;;2.63;;
37559;SDS011;23398;50.928;7.084;2022-08-11T05:29:53;3.03;;;2.67;;
37559;SDS011;23398;50.928;7.084;2022-08-11T05:32:45;3.03;;;2.60;;
37559;SDS011;23398;50.928;7.084;2022-08-11T05:35:38;3.97;;;2.42;;
37559;SDS011;23398;50.928;7.084;2022-08-11T05:38:10;3.25;;;2.80;;
37559;SDS011;23398;50.928;7.084;2022-08-11T05:40:59;3.63;;;2.78;;
37559;SDS011;23398;50.928;7.084;2022-08-11T05:43:44;5.57;;;2.50;;
37559;SDS011;23398;50.928;7.084;2022-08-11T05:46:30;2.65;;;2.45;;
37559;SDS011;23398;50.928;7.084;2022-08-11T05:49:23;2.65;;;2.35;;
37559;SDS011;23398;50.928;7.084;2022-08-11T05:52:15;3.92;;;2.55;;
37559;SDS011;23398;50.928;7.084;2022-08-11T05:55:10;3.50;;;2.65;;
37559;SDS011;23398;50.928;7.084;2022-08-11T05:58:01;3.08;;;2.75;;
37559;SDS011;23398;50.928;7.084;2022-08-11T06:00:28;3.75;;;2.40;;
37559;SDS011;23398;50.928;7.084;2022-08-11T06:02:56;3.42;;;2.63;;
37559;SDS011;23398;50.928;7.084;2022-08-11T06:05:30;3.92;;;2.70;;
37559;SDS011;23398;50.928;7.084;2022-08-11T06:07:58;3.08;;;2.78;;
37559;SDS011;23398;50.928;7.084;2022-08-11T06:10:31;2.60;;;2.40;;
37559;SDS011;23398;50.928;7.084;2022-08-11T06:12:58;6.00;;;2.90;;
37559;SDS011;23398;50.928;7.084;2022-08-11T06:15:25;4.13;;;2.70;;
37559;SDS011;23398;50.928;7.084;2022-08-11T06:17:51;3.20;;;2.65;;
37559;SDS011;23398;50.928;7.084;2022-08-11T06:20:19;3.47;;;2.38;;
37559;SDS011;23398;50.928;7.084;2022-08-11T06:22:47;2.50;;;2.30;;
37559;SDS011;23398;50.928;7.084;2022-08-11T06:25:20;3.95;;;2.40;;
37559;SDS011;23398;50.928;7.084;2022-08-11T06:27:46;9.32;;;4.40;;
37559;SDS011;23398;50.928;7.084;2022-08-11T06:30:31;6.70;;;3.10;;
37559;SDS011;23398;50.928;7.084;2022-08-11T06:32:59;4.00;;;2.70;;
37559;SDS011;23398;50.928;7.084;2022-08-11T06:35:37;3.58;;;2.55;;
37559;SDS011;23398;50.928;7.084;2022-08-11T06:38:36;3.92;;;2.58;;
37559;SDS011;23398;50.928;7.084;2022-08-11T06:41:30;4.20;;;2.50;;
37559;SDS011;23398;50.928;7.084;2022-08-11T06:43:58;7.90;;;2.60;;
37559;SDS011;23398;50.928;7.084;2022-08-11T06:46:30;2.20;;;2.00;;
37559;SDS011;23398;50.928;7.084;2022-08-11T06:49:01;2.85;;;2.42;;
37559;SDS011;23398;50.928;7.084;2022-08-11T06:51:27;5.97;;;2.38;;
37559;SDS011;23398;50.928;7.084;2022-08-11T06:53:55;4.60;;;2.75;;
37559;SDS011;23398;50.928;7.084;2022-08-11T06:56:25;2.67;;;2.05;;
37559;SDS011;23398;50.928;7.084;2022-08-11T06:59:21;4.65;;;2.00;;
37559;SDS011;23398;50.928;7.084;2022-08-11T07:02:09;3.92;;;2.20;;
37559;SDS011;23398;50.928;7.084;2022-08-11T07:04:43;3.45;;;2.20;;
37559;SDS011;23398;50.928;7.084;2022-08-11T07:07:31;2.30;;;2.10;;
37559;SDS011;23398;50.928;7.084;2022-08-11T07:10:37;2.33;;;2.05;;
37559;SDS011;23398;50.928;7.084;2022-08-11T07:13:40;3.25;;;1.80;;
37559;SDS011;23398;50.928;7.084;2022-08-11T07:16:29;1.90;;;1.80;;
37559;SDS011;23398;50.928;7.084;2022-08-11T07:19:02;3.35;;;2.10;;
37559;SDS011;23398;50.928;7.084;2022-08-11T07:21:48;2.25;;;1.95;;
37559;SDS011;23398;50.928;7.084;2022-08-11T07:24:38;2.45;;;1.73;;
37559;SDS011;23398;50.928;7.084;2022-08-11T07:27:24;2.05;;;1.90;;
37559;SDS011;23398;50.928;7.084;2022-08-11T07:30:18;5.18;;;1.95;;
37559;SDS011;23398;50.928;7.084;2022-08-11T07:32:48;2.30;;;1.88;;
37559;SDS011;23398;50.928;7.084;2022-08-11T07:35:17;2.47;;;1.67;;
37559;SDS011;23398;50.928;7.084;2022-08-11T07:37:52;2.45;;;2.05;;
37559;SDS011;23398;50.928;7.084;2022-08-11T07:40:23;2.25;;;1.90;;
37559;SDS011;23398;50.928;7.084;2022-08-11T07:42:49;1.70;;;1.60;;
37559;SDS011;23398;50.928;7.084;2022-08-11T07:45:17;2.08;;;1.90;;
37559;SDS011;23398;50.928;7.084;2022-08-11T07:48:02;2.15;;;1.80;;
37559;SDS011;23398;50.928;7.084;2022-08-11T07:50:48;2.63;;;1.83;;
37559;SDS011;23398;50.928;7.084;2022-08-11T07:53:32;1.90;;;1.80;;
37559;SDS011;23398;50.928;7.084;2022-08-11T07:56:02;2.05;;;1.80;;
37559;SDS011;23398;50.928;7.084;2022-08-11T07:58:30;2.10;;;1.92;;
37559;SDS011;23398;50.928;7.084;2022-08-11T08:01:18;1.95;;;1.80;;
37559;SDS011;23398;50.928;7.084;2022-08-11T08:04:08;2.00;;;1.80;;
37559;SDS011;23398;50.928;7.084;2022-08-11T08:06:55;2.83;;;1.80;;
37559;SDS011;23398;50.928;7.084;2022-08-11T08:09:40;2.15;;;1.95;;
37559;SDS011;23398;50.928;7.084;2022-08-11T08:12:26;1.80;;;1.70;;
37559;SDS011;23398;50.928;7.084;2022-08-11T08:15:12;2.63;;;1.98;;
37559;SDS011;23398;50.928;7.084;2022-08-11T08:17:59;1.70;;;1.55;;
37559;SDS011;23398;50.928;7.084;2022-08-11T08:20:33;2.85;;;1.75;;
37559;SDS011;23398;50.928;7.084;2022-08-11T08:23:13;2.00;;;1.90;;
37559;SDS011;23398;50.928;7.084;2022-08-11T08:25:40;2.22;;;1.90;;
37559;SDS011;23398;50.928;7.084;2022-08-11T08:28:09;2.75;;;1.75;;
37559;SDS011;23398;50.928;7.084;2022-08-11T08:30:38;2.03;;;1.80;;
37559;SDS011;23398;50.928;7.084;2022-08-11T08:33:30;3.15;;;1.90;;
37559;SDS011;23398;50.928;7.084;2022-08-11T08:36:00;3.15;;;1.88;;
37559;SDS011;23398;50.928;7.084;2022-08-11T08:41:21;1.98;;;1.88;;
37559;SDS011;23398;50.928;7.084;2022-08-11T08:43:50;3.13;;;1.83;;
37559;SDS011;23398;50.928;7.084;2022-08-11T08:46:21;2.10;;;1.90;;
37559;SDS011;23398;50.928;7.084;2022-08-11T08:48:54;2.90;;;1.88;;
37559;SDS011;23398;50.928;7.084;2022-08-11T08:51:21;2.00;;;1.90;;
37559;SDS011;23398;50.928;7.084;2022-08-11T08:54:02;1.88;;;1.77;;
37559;SDS011;23398;50.928;7.084;2022-08-11T08:56:50;2.05;;;1.90;;
37559;SDS011;23398;50.928;7.084;2022-08-11T08:59:19;2.30;;;1.80;;
37559;SDS011;23398;50.928;7.084;2022-08-11T09:04:22;2.13;;;1.92;;
37559;SDS011;23398;50.928;7.084;2022-08-11T09:06:49;1.85;;;1.75;;
37559;SDS011;23398;50.928;7.084;2022-08-11T09:09:15;2.00;;;1.90;;
37559;SDS011;23398;50.928;7.084;2022-08-11T09:11:41;3.67;;;2.00;;
37559;SDS011;23398;50.928;7.084;2022-08-11T09:14:15;2.65;;;1.70;;
37559;SDS011;23398;50.928;7.084;2022-08-11T09:16:42;2.40;;;1.70;;
37559;SDS011;23398;50.928;7.084;2022-08-11T09:19:09;2.90;;;1.80;;
37559;SDS011;23398;50.928;7.084;2022-08-11T09:21:40;2.08;;;1.90;;
37559;SDS011;23398;50.928;7.084;2022-08-11T09:24:07;2.33;;;1.83;;
37559;SDS011;23398;50.928;7.084;2022-08-11T09:26:51;2.30;;;1.80;;
37559;SDS011;23398;50.928;7.084;2022-08-11T09:29:25;2.42;;;1.90;;
37559;SDS011;23398;50.928;7.084;2022-08-11T09:31:55;2.33;;;1.95;;
37559;SDS011;23398;50.928;7.084;2022-08-11T09:34:23;2.13;;;2.00;;
37559;SDS011;23398;50.928;7.084;2022-08-11T09:36:50;2.03;;;1.92;;
37559;SDS011;23398;50.928;7.084;2022-08-11T09:39:35;2.30;;;2.10;;
37559;SDS011;23398;50.928;7.084;2022-08-11T09:42:21;3.22;;;1.80;;
37559;SDS011;23398;50.928;7.084;2022-08-11T09:44:47;2.03;;;1.90;;
37559;SDS011;23398;50.928;7.084;2022-08-11T09:49:45;1.90;;;1.80;;
37559;SDS011;23398;50.928;7.084;2022-08-11T09:52:13;1.92;;;1.83;;
37559;SDS011;23398;50.928;7.084;2022-08-11T09:54:40;2.03;;;1.90;;
37559;SDS011;23398;50.928;7.084;2022-08-11T09:57:07;2.58;;;1.98;;
37559;SDS011;23398;50.928;7.084;2022-08-11T09:59:52;2.08;;;1.90;;
37559;SDS011;23398;50.928;7.084;2022-08-11T10:02:22;1.88;;;1.77;;
37559;SDS011;23398;50.928;7.084;2022-08-11T10:04:50;2.08;;;1.67;;
37559;SDS011;23398;50.928;7.084;2022-08-11T10:07:18;3.55;;;2.00;;
37559;SDS011;23398;50.928;7.084;2022-08-11T10:12:24;2.00;;;1.80;;
37559;SDS011;23398;50.928;7.084;2022-08-11T10:14:52;2.22;;;1.90;;
37559;SDS011;23398;50.928;7.084;2022-08-11T10:17:40;3.80;;;1.80;;
37559;SDS011;23398;50.928;7.084;2022-08-11T10:20:29;2.20;;;2.05;;
37559;SDS011;23398;50.928;7.084;2022-08-11T10:22:58;2.10;;;1.98;;
37559;SDS011;23398;50.928;7.084;2022-08-11T10:25:42;2.08;;;1.88;;
37559;SDS011;23398;50.928;7.084;2022-08-11T10:28:27;2.13;;;1.85;;
37559;SDS011;23398;50.928;7.084;2022-08-11T10:30:53;3.67;;;2.30;;
37559;SDS011;23398;50.928;7.084;2022-08-11T10:33:38;1.80;;;1.70;;
37559;SDS011;23398;50.928;7.084;2022-08-11T10:36:23;3.33;;;1.80;;
37559;SDS011;23398;50.928;7.084;2022-08-11T10:38:53;1.80;;;1.70;;
37559;SDS011;23398;50.928;7.084;2022-08-11T10:41:21;3.20;;;2.05;;
37559;SDS011;23398;50.928;7.084;2022-08-11T10:44:06;1.92;;;1.83;;
37559;SDS011;23398;50.928;7.084;2022-08-11T10:46:33;2.38;;;2.00;;
37559;SDS011;23398;50.928;7.084;2022-08-11T10:49:18;2.10;;;1.90;;
37559;SDS011;23398;50.928;7.084;2022-08-11T10:51:46;2.70;;;1.52;;
37559;SDS011;23398;50.928;7.084;2022-08-11T10:54:31;2.10;;;1.80;;
37559;SDS011;23398;50.928;7.084;2022-08-11T10:57:16;1.98;;;1.70;;
37559;SDS011;23398;50.928;7.084;2022-08-11T11:00:03;2.78;;;1.80;;
37559;SDS011;23398;50.928;7.084;2022-08-11T11:02:30;1.75;;;1.65;;
37559;SDS011;23398;50.928;7.084;2022-08-11T11:04:59;2.28;;;1.55;;
37559;SDS011;23398;50.928;7.084;2022-08-11T11:07:45;2.10;;;1.90;;
37559;SDS011;23398;50.928;7.084;2022-08-11T11:10:52;2.90;;;1.60;;
37559;SDS011;23398;50.928;7.084;2022-08-11T11:13:18;2.78;;;1.70;;
37559;SDS011;23398;50.928;7.084;2022-08-11T11:16:05;2.22;;;1.67;;
37559;SDS011;23398;50.928;7.084;2022-08-11T11:19:09;2.55;;;1.60;;
37559;SDS011;23398;50.928;7.084;2022-08-11T11:21:35;2.45;;;1.80;;
37559;SDS011;23398;50.928;7.084;2022-08-11T11:24:09;1.80;;;1.70;;
37559;SDS011;23398;50.928;7.084;2022-08-11T11:32:32;1.80;;;1.70;;
37559;SDS011;23398;50.928;7.084;2022-08-11T11:37:45;2.63;;;1.60;;
37559;SDS011;23398;50.928;7.084;2022-08-11T11:40:15;2.10;;;1.90;;
37559;SDS011;23398;50.928;7.084;2022-08-11T11:42:45;1.98;;;1.70;;
37559;SDS011;23398;50.928;7.084;2022-08-11T11:45:16;3.05;;;1.60;;
37559;SDS011;23398;50.928;7.084;2022-08-11T11:47:50;2.80;;;1.88;;
37559;SDS011;23398;50.928;7.084;2022-08-11T11:50:22;3.30;;;1.80;;
37559;SDS011;23398;50.928;7.084;2022-08-11T11:52:51;2.70;;;1.80;;
37559;SDS011;23398;50.928;7.084;2022-08-11T11:55:18;3.15;;;1.80;;
37559;SDS011;23398;50.928;7.084;2022-08-11T11:57:47;2.00;;;1.80;;
37559;SDS011;23398;50.928;7.084;2022-08-11T12:00:32;1.90;;;1.70;;
37559;SDS011;23398;50.928;7.084;2022-08-11T12:03:16;1.90;;;1.80;;
37559;SDS011;23398;50.928;7.084;2022-08-11T12:05:43;3.17;;;1.80;;
37559;SDS011;23398;50.928;7.084;2022-08-11T12:08:10;2.33;;;2.00;;
37559;SDS011;23398;50.928;7.084;2022-08-11T12:10:42;1.88;;;1.60;;
37559;SDS011;23398;50.928;7.084;2022-08-11T12:13:12;1.98;;;1.80;;
37559;SDS011;23398;50.928;7.084;2022-08-11T12:15:58;1.70;;;1.60;;
37559;SDS011;23398;50.928;7.084;2022-08-11T12:18:28;2.00;;;1.80;;
37559;SDS011;23398;50.928;7.084;2022-08-11T12:20:59;3.15;;;1.88;;
37559;SDS011;23398;50.928;7.084;2022-08-11T12:23:26;2.20;;;1.63;;
37559;SDS011;23398;50.928;7.084;2022-08-11T12:26:12;2.45;;;1.80;;
37559;SDS011;23398;50.928;7.084;2022-08-11T12:28:59;1.77;;;1.60;;
37559;SDS011;23398;50.928;7.084;2022-08-11T12:31:25;2.25;;;1.90;;
37559;SDS011;23398;50.928;7.084;2022-08-11T12:33:58;1.75;;;1.65;;
37559;SDS011;23398;50.928;7.084;2022-08-11T12:36:25;2.53;;;1.80;;
37559;SDS011;23398;50.928;7.084;2022-08-11T12:38:51;4.18;;;1.58;;
37559;SDS011;23398;50.928;7.084;2022-08-11T12:41:19;2.22;;;1.67;;
37559;SDS011;23398;50.928;7.084;2022-08-11T12:44:04;2.33;;;1.70;;
37559;SDS011;23398;50.928;7.084;2022-08-11T12:46:53;1.85;;;1.75;;
37559;SDS011;23398;50.928;7.084;2022-08-11T12:49:22;3.78;;;1.90;;
37559;SDS011;23398;50.928;7.084;2022-08-11T12:52:08;1.90;;;1.60;;
37559;SDS011;23398;50.928;7.084;2022-08-11T12:54:58;2.60;;;1.90;;
37559;SDS011;23398;50.928;7.084;2022-08-11T13:00:15;2.83;;;1.70;;
37559;SDS011;23398;50.928;7.084;2022-08-11T13:03:00;2.13;;;1.67;;
37559;SDS011;23398;50.928;7.084;2022-08-11T13:05:46;3.15;;;1.70;;
37559;SDS011;23398;50.928;7.084;2022-08-11T13:08:15;2.08;;;1.88;;
37559;SDS011;23398;50.928;7.084;2022-08-11T13:10:42;1.85;;;1.73;;
37559;SDS011;23398;50.928;7.084;2022-08-11T13:13:28;3.45;;;1.67;;
37559;SDS011;23398;50.928;7.084;2022-08-11T13:15:55;1.80;;;1.70;;
37559;SDS011;23398;50.928;7.084;2022-08-11T13:18:22;2.25;;;2.05;;
37559;SDS011;23398;50.928;7.084;2022-08-11T13:20:50;2.65;;;1.80;;
37559;SDS011;23398;50.928;7.084;2022-08-11T13:23:18;2.63;;;1.70;;
37559;SDS011;23398;50.928;7.084;2022-08-11T13:25:44;1.77;;;1.67;;
37559;SDS011;23398;50.928;7.084;2022-08-11T13:28:10;2.03;;;1.83;;
37559;SDS011;23398;50.928;7.084;2022-08-11T13:30:37;1.95;;;1.77;;
37559;SDS011;23398;50.928;7.084;2022-08-11T13:33:22;2.00;;;1.83;;
37559;SDS011;23398;50.928;7.084;2022-08-11T13:35:50;2.30;;;1.67;;
37559;SDS011;23398;50.928;7.084;2022-08-11T13:38:18;2.88;;;1.90;;
37559;SDS011;23398;50.928;7.084;2022-08-11T13:40:46;1.85;;;1.75;;
37559;SDS011;23398;50.928;7.084;2022-08-11T13:43:13;1.73;;;1.50;;
37559;SDS011;23398;50.928;7.084;2022-08-11T13:45:40;1.85;;;1.63;;
37559;SDS011;23398;50.928;7.084;2022-08-11T13:48:08;2.15;;;1.63;;
37559;SDS011;23398;50.928;7.084;2022-08-11T13:50:36;1.83;;;1.70;;
37559;SDS011;23398;50.928;7.084;2022-08-11T13:53:23;2.35;;;2.08;;
37559;SDS011;23398;50.928;7.084;2022-08-11T13:55:50;3.00;;;1.80;;
37559;SDS011;23398;50.928;7.084;2022-08-11T13:58:16;5.72;;;2.13;;
37559;SDS011;23398;50.928;7.084;2022-08-11T14:00:45;2.35;;;1.88;;
37559;SDS011;23398;50.928;7.084;2022-08-11T14:03:14;3.17;;;1.80;;
37559;SDS011;23398;50.928;7.084;2022-08-11T14:05:48;2.50;;;2.10;;
37559;SDS011;23398;50.928;7.084;2022-08-11T14:08:18;2.22;;;1.83;;
37559;SDS011;23398;50.928;7.084;2022-08-11T14:10:48;2.25;;;1.70;;
37559;SDS011;23398;50.928;7.084;2022-08-11T14:13:36;1.95;;;1.70;;
37559;SDS011;23398;50.928;7.084;2022-08-11T14:18:59;2.58;;;1.67;;
37559;SDS011;23398;50.928;7.084;2022-08-11T14:21:27;2.90;;;1.88;;
37559;SDS011;23398;50.928;7.084;2022-08-11T14:24:15;3.75;;;1.85;;
37559;SDS011;23398;50.928;7.084;2022-08-11T14:26:42;3.25;;;2.10;;
37559;SDS011;23398;50.928;7.084;2022-08-11T14:29:13;3.03;;;1.95;;
37559;SDS011;23398;50.928;7.084;2022-08-11T14:31:46;2.78;;;1.75;;
37559;SDS011;23398;50.928;7.084;2022-08-11T14:34:18;3.58;;;2.10;;
37559;SDS011;23398;50.928;7.084;2022-08-11T14:36:52;2.17;;;1.88;;
37559;SDS011;23398;50.928;7.084;2022-08-11T14:39:26;4.93;;;1.90;;
37559;SDS011;23398;50.928;7.084;2022-08-11T14:41:55;2.40;;;2.00;;
37559;SDS011;23398;50.928;7.084;2022-08-11T14:44:48;3.15;;;2.05;;
37559;SDS011;23398;50.928;7.084;2022-08-11T14:47:35;2.10;;;1.90;;
37559;SDS011;23398;50.928;7.084;2022-08-11T14:50:03;2.20;;;2.00;;
37559;SDS011;23398;50.928;7.084;2022-08-11T14:52:32;3.10;;;1.90;;
37559;SDS011;23398;50.928;7.084;2022-08-11T14:55:02;2.90;;;1.90;;
37559;SDS011;23398;50.928;7.084;2022-08-11T14:57:47;2.92;;;1.77;;
37559;SDS011;23398;50.928;7.084;2022-08-11T15:00:15;2.10;;;1.83;;
37559;SDS011;23398;50.928;7.084;2022-08-11T15:02:42;3.78;;;1.80;;
37559;SDS011;23398;50.928;7.084;2022-08-11T15:05:29;2.58;;;1.60;;
37559;SDS011;23398;50.928;7.084;2022-08-11T15:07:55;1.92;;;1.73;;
37559;SDS011;23398;50.928;7.084;2022-08-11T15:10:23;2.47;;;1.88;;
37559;SDS011;23398;50.928;7.084;2022-08-11T15:12:49;2.22;;;1.70;;
37559;SDS011;23398;50.928;7.084;2022-08-11T15:15:16;2.13;;;1.90;;
37559;SDS011;23398;50.928;7.084;2022-08-11T15:18:02;2.60;;;1.75;;
37559;SDS011;23398;50.928;7.084;2022-08-11T15:20:30;2.20;;;2.00;;
37559;SDS011;23398;50.928;7.084;2022-08-11T15:23:16;2.88;;;2.00;;
37559;SDS011;23398;50.928;7.084;2022-08-11T15:26:01;3.67;;;1.85;;
37559;SDS011;23398;50.928;7.084;2022-08-11T15:28:37;2.92;;;2.03;;
37559;SDS011;23398;50.928;7.084;2022-08-11T15:31:24;2.40;;;2.10;;
37559;SDS011;23398;50.928;7.084;2022-08-11T15:34:11;3.15;;;1.73;;
37559;SDS011;23398;50.928;7.084;2022-08-11T15:36:58;2.58;;;1.83;;
37559;SDS011;23398;50.928;7.084;2022-08-11T15:39:50;2.63;;;1.73;;
37559;SDS011;23398;50.928;7.084;2022-08-11T15:45:40;3.78;;;2.20;;
37559;SDS011;23398;50.928;7.084;2022-08-11T15:48:16;3.65;;;2.20;;
37559;SDS011;23398;50.928;7.084;2022-08-11T15:50:55;2.75;;;1.75;;
37559;SDS011;23398;50.928;7.084;2022-08-11T15:53:40;3.67;;;2.05;;
37559;SDS011;23398;50.928;7.084;2022-08-11T15:56:09;2.13;;;1.77;;
37559;SDS011;23398;50.928;7.084;2022-08-11T15:58:43;1.83;;;1.73;;
37559;SDS011;23398;50.928;7.084;2022-08-11T16:01:29;2.45;;;2.00;;
37559;SDS011;23398;50.928;7.084;2022-08-11T16:04:19;2.08;;;1.88;;
37559;SDS011;23398;50.928;7.084;2022-08-11T16:09:34;2.22;;;2.00;;
37559;SDS011;23398;50.928;7.084;2022-08-11T16:12:11;4.30;;;2.17;;
37559;SDS011;23398;50.928;7.084;2022-08-11T16:14:45;3.08;;;2.38;;
37559;SDS011;23398;50.928;7.084;2022-08-11T16:17:33;2.33;;;1.83;;
37559;SDS011;23398;50.928;7.084;2022-08-11T16:20:04;2.17;;;1.98;;
37559;SDS011;23398;50.928;7.084;2022-08-11T16:22:32;2.00;;;1.80;;
37559;SDS011;23398;50.928;7.084;2022-08-11T16:25:09;1.70;;;1.60;;
37559;SDS011;23398;50.928;7.084;2022-08-11T16:27:37;4.68;;;2.08;;
37559;SDS011;23398;50.928;7.084;2022-08-11T16:30:07;2.00;;;1.80;;
37559;SDS011;23398;50.928;7.084;2022-08-11T16:32:34;2.05;;;1.88;;
37559;SDS011;23398;50.928;7.084;2022-08-11T16:35:05;1.90;;;1.77;;
37559;SDS011;23398;50.928;7.084;2022-08-11T16:37:52;3.28;;;1.88;;
37559;SDS011;23398;50.928;7.084;2022-08-11T16:40:38;1.92;;;1.77;;
37559;SDS011;23398;50.928;7.084;2022-08-11T16:43:04;2.15;;;1.90;;
37559;SDS011;23398;50.928;7.084;2022-08-11T16:45:52;2.05;;;1.85;;
37559;SDS011;23398;50.928;7.084;2022-08-11T16:48:38;3.38;;;2.10;;
37559;SDS011;23398;50.928;7.084;2022-08-11T16:51:06;3.53;;;1.90;;
37559;SDS011;23398;50.928;7.084;2022-08-11T16:53:35;2.03;;;1.88;;
37559;SDS011;23398;50.928;7.084;2022-08-11T16:56:03;2.53;;;2.00;;
37559;SDS011;23398;50.928;7.084;2022-08-11T16:58:33;2.92;;;2.00;;
37559;SDS011;23398;50.928;7.084;2022-08-11T17:01:20;2.95;;;1.90;;
37559;SDS011;23398;50.928;7.084;2022-08-11T17:04:23;1.77;;;1.67;;
37559;SDS011;23398;50.928;7.084;2022-08-11T17:07:04;2.30;;;1.80;;
37559;SDS011;23398;50.928;7.084;2022-08-11T17:09:49;1.98;;;1.83;;
37559;SDS011;23398;50.928;7.084;2022-08-11T17:12:36;2.00;;;1.80;;
37559;SDS011;23398;50.928;7.084;2022-08-11T17:15:23;2.50;;;1.92;;
37559;SDS011;23398;50.928;7.084;2022-08-11T17:18:09;2.00;;;1.90;;
37559;SDS011;23398;50.928;7.084;2022-08-11T17:20:59;2.15;;;1.92;;
37559;SDS011;23398;50.928;7.084;2022-08-11T17:23:28;2.15;;;1.90;;
37559;SDS011;23398;50.928;7.084;2022-08-11T17:26:22;2.30;;;2.10;;
37559;SDS011;23398;50.928;7.084;2022-08-11T17:32:02;2.13;;;1.92;;
37559;SDS011;23398;50.928;7.084;2022-08-11T17:34:49;3.08;;;2.10;;
37559;SDS011;23398;50.928;7.084;2022-08-11T17:37:37;3.65;;;1.98;;
37559;SDS011;23398;50.928;7.084;2022-08-11T17:40:06;2.00;;;1.85;;
37559;SDS011;23398;50.928;7.084;2022-08-11T17:42:34;2.75;;;1.83;;
37559;SDS011;23398;50.928;7.084;2022-08-11T17:45:20;2.35;;;1.90;;
37559;SDS011;23398;50.928;7.084;2022-08-11T17:48:06;2.15;;;1.92;;
37559;SDS011;23398;50.928;7.084;2022-08-11T17:50:55;2.20;;;2.00;;
37559;SDS011;23398;50.928;7.084;2022-08-11T17:53:30;2.08;;;1.75;;
37559;SDS011;23398;50.928;7.084;2022-08-11T17:56:20;2.38;;;1.70;;
37559;SDS011;23398;50.928;7.084;2022-08-11T17:59:06;2.10;;;1.90;;
37559;SDS011;23398;50.928;7.084;2022-08-11T18:01:51;2.38;;;1.80;;
37559;SDS011;23398;50.928;7.084;2022-08-11T18:04:20;2.10;;;1.98;;
37559;SDS011;23398;50.928;7.084;2022-08-11T18:06:47;1.73;;;1.63;;
37559;SDS011;23398;50.928;7.084;2022-08-11T18:09:15;1.95;;;1.80;;
37559;SDS011;23398;50.928;7.084;2022-08-11T18:12:03;1.85;;;1.75;;
37559;SDS011;23398;50.928;7.084;2022-08-11T18:14:50;3.63;;;2.00;;
37559;SDS011;23398;50.928;7.084;2022-08-11T18:17:37;1.85;;;1.75;;
37559;SDS011;23398;50.928;7.084;2022-08-11T18:20:23;2.17;;;1.92;;
37559;SDS011;23398;50.928;7.084;2022-08-11T18:23:09;2.25;;;1.92;;
37559;SDS011;23398;50.928;7.084;2022-08-11T18:25:59;2.03;;;1.80;;
37559;SDS011;23398;50.928;7.084;2022-08-11T18:28:46;3.97;;;1.98;;
37559;SDS011;23398;50.928;7.084;2022-08-11T18:31:37;2.10;;;1.90;;
37559;SDS011;23398;50.928;7.084;2022-08-11T18:34:31;2.20;;;2.00;;
37559;SDS011;23398;50.928;7.084;2022-08-11T18:37:18;2.78;;;1.70;;
37559;SDS011;23398;50.928;7.084;2022-08-11T18:40:10;2.05;;;1.70;;
37559;SDS011;23398;50.928;7.084;2022-08-11T18:42:59;3.15;;;1.92;;
37559;SDS011;23398;50.928;7.084;2022-08-11T18:45:48;2.55;;;1.80;;
37559;SDS011;23398;50.928;7.084;2022-08-11T18:48:35;2.92;;;1.90;;
37559;SDS011;23398;50.928;7.084;2022-08-11T18:51:24;2.10;;;1.90;;
37559;SDS011;23398;50.928;7.084;2022-08-11T18:54:09;2.88;;;1.90;;
37559;SDS011;23398;50.928;7.084;2022-08-11T18:56:56;3.67;;;2.00;;
37559;SDS011;23398;50.928;7.084;2022-08-11T18:59:44;2.03;;;1.83;;
37559;SDS011;23398;50.928;7.084;2022-08-11T19:02:31;2.20;;;2.00;;
37559;SDS011;23398;50.928;7.084;2022-08-11T19:05:19;2.30;;;1.85;;
37559;SDS011;23398;50.928;7.084;2022-08-11T19:08:05;2.33;;;2.00;;
37559;SDS011;23398;50.928;7.084;2022-08-11T19:10:51;2.33;;;2.00;;
37559;SDS011;23398;50.928;7.084;2022-08-11T19:13:37;3.83;;;2.03;;
37559;SDS011;23398;50.928;7.084;2022-08-11T19:16:23;3.60;;;2.20;;
37559;SDS011;23398;50.928;7.084;2022-08-11T19:19:08;3.03;;;2.00;;
37559;SDS011;23398;50.928;7.084;2022-08-11T19:21:56;2.30;;;2.10;;
37559;SDS011;23398;50.928;7.084;2022-08-11T19:24:41;2.22;;;1.98;;
37559;SDS011;23398;50.928;7.084;2022-08-11T19:27:29;3.35;;;2.00;;